Hauptseite
METAR-TAF:

METAR-TAF

Flughäfen :

Norwich, England

Norwich International Airport

Breite: 52-38N, Länge: 001-18E, Höhe: 14 m

Beobachtung

Neuester Wetterbericht von vor 25 Minuten, um 00:50 UTC
Wind 9 kt aus West/Südwest
Temperatur 2°C
Luftfeuchtigkeit 87%
Luftdruck 1006 hPa
Sichtweite 10 km oder mehr

METAR: EGSH 200050Z AUTO 25009KT 9999 NCD 02/M00 Q1006

Zeit: 01:15 (01:15 UTC)

Prognose

Neuester Wetterbericht von vor 5 Stunden und 15 Minuten, um 20:00 UTC
Gültige Prognose vom 19 um 21 UTC bis 19 um 24 UTC
Wind 10 kt aus West/Südwest
Sichtweite 10 km oder mehr
Leicht bewölkt in der Höhe von 3000 ft

TAF: EGSH 192000Z 1921/1924 25010KT 9999 FEW030

Wetterbeobachtungen und Prognosen von mehr als 4000 Flughäfen (METAR und TAF Bericht).

Die verfügbaren Stationen werden durch gelbe und rote Markierungen auf der Karte dargestellt.

Führen Sie die Maus auf sie, um den Namen der Station zu sehen.

Darauf klicken, um die Beobachtung von Wetterbeobachtungen und Prognosen zu sehen.

Um die Karte zu ändern : klicken Sie auf den grünen Tasten mit einem schwarzen Kreuz Zum Vergrößern, auf den grünen Button mit einem Gedankenstrich zu verkleinern, oder auf die grünen Pfeile für benachbarte Karten.


METAR-TAF: